createdAt,value
2018-09-14T00:00:45.658Z,10.13
2018-09-14T00:03:21.359Z,8.20
2018-09-14T00:05:56.971Z,10.17
2018-09-14T00:08:32.517Z,12.03
2018-09-14T00:11:08.126Z,9.60
2018-09-14T00:13:43.950Z,8.97
2018-09-14T00:16:19.822Z,9.80
2018-09-14T00:18:55.393Z,8.80
2018-09-14T00:21:32.050Z,8.90
2018-09-14T00:24:07.786Z,14.20
2018-09-14T00:26:43.469Z,14.07
2018-09-14T00:29:19.223Z,11.57
2018-09-14T00:31:54.969Z,9.70
2018-09-14T00:34:30.613Z,10.63
2018-09-14T00:37:07.227Z,9.40
2018-09-14T00:39:42.985Z,10.47
2018-09-14T00:42:19.164Z,8.90
2018-09-14T00:44:54.845Z,9.87
2018-09-14T00:47:31.542Z,9.33
2018-09-14T00:50:07.287Z,9.83
2018-09-14T00:52:43.039Z,10.73
2018-09-14T00:55:19.042Z,12.63
2018-09-14T00:57:54.687Z,9.13
2018-09-14T01:00:30.409Z,8.33
2018-09-14T01:03:06.394Z,8.30
2018-09-14T01:05:42.152Z,8.50
2018-09-14T01:08:17.919Z,9.93
2018-09-14T01:10:53.764Z,13.37
2018-09-14T01:13:29.425Z,21.73
2018-09-14T01:16:04.981Z,31.97
2018-09-14T01:18:40.661Z,28.37
2018-09-14T01:21:16.362Z,25.27
2018-09-14T01:23:52.034Z,20.33
2018-09-14T01:26:27.637Z,20.93
2018-09-14T01:29:03.317Z,15.20
2018-09-14T01:31:39.590Z,14.37
2018-09-14T01:34:15.360Z,12.10
2018-09-14T01:36:51.442Z,11.03
2018-09-14T01:39:27.095Z,11.23
2018-09-14T01:42:02.808Z,11.37
2018-09-14T01:44:38.795Z,10.10
2018-09-14T01:47:14.524Z,11.77
2018-09-14T01:49:50.359Z,12.60
2018-09-14T01:52:25.820Z,11.90
2018-09-14T01:55:01.768Z,12.40
2018-09-14T01:57:37.305Z,11.77
2018-09-14T02:00:13.941Z,12.20
2018-09-14T02:02:49.678Z,12.33
2018-09-14T02:05:25.361Z,11.93
2018-09-14T02:08:01.027Z,9.50
2018-09-14T02:10:36.850Z,9.47
2018-09-14T02:13:12.551Z,10.70
2018-09-14T02:15:48.082Z,10.43
2018-09-14T02:18:24.018Z,9.33
2018-09-14T02:20:59.686Z,9.50
2018-09-14T02:23:35.547Z,9.37
2018-09-14T02:26:11.252Z,8.77
2018-09-14T02:28:46.977Z,8.50
2018-09-14T02:31:22.889Z,8.63
2018-09-14T02:33:58.490Z,8.57
2018-09-14T02:36:34.165Z,9.60
2018-09-14T02:39:10.100Z,10.17
2018-09-14T02:41:45.840Z,11.20
2018-09-14T02:44:21.432Z,9.73
2018-09-14T02:46:57.034Z,10.23
2018-09-14T02:49:33.415Z,9.30
2018-09-14T02:52:09.714Z,8.80
2018-09-14T02:54:45.477Z,9.50
2018-09-14T02:57:21.718Z,8.37
2018-09-14T02:59:57.429Z,9.83
2018-09-14T03:02:33.376Z,9.33
2018-09-14T03:05:09.728Z,9.37
2018-09-14T03:07:45.391Z,8.80
2018-09-14T03:10:21.320Z,8.90
2018-09-14T03:12:56.902Z,8.23
2018-09-14T03:15:32.598Z,9.00
2018-09-14T03:18:08.216Z,9.97
2018-09-14T03:20:43.927Z,10.23
2018-09-14T03:23:19.685Z,11.93
2018-09-14T03:25:55.547Z,9.60
2018-09-14T03:28:31.304Z,11.03
2018-09-14T03:31:06.982Z,9.67
2018-09-14T03:33:42.555Z,10.37
2018-09-14T03:36:18.396Z,10.70
2018-09-14T03:38:54.224Z,10.33
2018-09-14T03:41:30.356Z,10.13
2018-09-14T03:44:05.979Z,10.23
2018-09-14T03:46:41.562Z,9.17
2018-09-14T03:49:17.264Z,8.97
2018-09-14T03:51:52.931Z,8.07
2018-09-14T03:54:29.381Z,9.20
2018-09-14T03:57:05.957Z,8.00
2018-09-14T03:59:41.833Z,8.57
2018-09-14T04:02:17.397Z,9.77
2018-09-14T04:04:53.060Z,7.93
2018-09-14T04:07:28.598Z,8.33
2018-09-14T04:10:04.783Z,9.47
2018-09-14T04:12:40.494Z,11.67
2018-09-14T04:15:16.186Z,11.67
2018-09-14T04:17:52.092Z,9.93
2018-09-14T04:20:27.658Z,10.00
2018-09-14T04:23:03.354Z,9.53
2018-09-14T04:25:39.207Z,9.50
2018-09-14T04:28:14.903Z,11.00
2018-09-14T04:30:51.333Z,13.80
2018-09-14T04:33:26.992Z,12.23
2018-09-14T04:36:02.503Z,11.27
2018-09-14T04:38:38.173Z,10.57
2018-09-14T04:41:14.054Z,11.13
2018-09-14T04:43:50.453Z,13.23
2018-09-14T04:46:25.931Z,16.27
2018-09-14T04:49:01.598Z,16.13
2018-09-14T04:51:37.327Z,18.70
2018-09-14T04:54:12.941Z,21.50
2018-09-14T04:56:48.654Z,16.73
2018-09-14T04:59:24.358Z,11.77
2018-09-14T05:02:00.052Z,12.50
2018-09-14T05:04:35.973Z,10.63
2018-09-14T05:07:11.822Z,9.83
2018-09-14T05:09:47.861Z,9.83
2018-09-14T05:12:23.599Z,9.00
2018-09-14T05:14:59.803Z,10.03
2018-09-14T05:17:35.991Z,9.23
2018-09-14T05:20:11.870Z,11.17
2018-09-14T05:22:48.241Z,12.17
2018-09-14T05:25:24.226Z,13.07
2018-09-14T05:28:00.048Z,14.43
2018-09-14T05:30:35.639Z,12.63
2018-09-14T05:33:11.285Z,13.00
2018-09-14T05:35:46.998Z,14.27
2018-09-14T05:38:22.686Z,14.33
2018-09-14T05:40:58.439Z,14.60
2018-09-14T05:43:34.343Z,14.77
2018-09-14T05:46:10.028Z,16.70
2018-09-14T05:48:45.950Z,17.10
2018-09-14T05:51:21.712Z,16.90
2018-09-14T05:53:57.508Z,15.93
2018-09-14T05:56:33.096Z,16.87
2018-09-14T05:59:08.827Z,18.30
2018-09-14T06:01:44.766Z,20.37
2018-09-14T06:04:20.483Z,18.40
2018-09-14T06:06:56.083Z,18.07
2018-09-14T06:09:31.714Z,17.63
2018-09-14T06:12:07.321Z,17.90
2018-09-14T06:14:40.610Z,16.67
2018-09-14T06:17:11.396Z,15.83
2018-09-14T06:19:42.532Z,15.50
2018-09-14T06:22:13.154Z,16.07
2018-09-14T06:24:43.838Z,13.70
2018-09-14T06:27:17.588Z,16.03
2018-09-14T06:29:48.315Z,15.07
2018-09-14T06:32:18.949Z,15.67
2018-09-14T06:34:49.757Z,14.03
2018-09-14T06:37:20.418Z,13.43
2018-09-14T06:39:54.378Z,16.40
2018-09-14T06:42:25.292Z,17.27
2018-09-14T06:44:56.195Z,19.63
2018-09-14T06:47:27.109Z,13.40
2018-09-14T06:49:57.932Z,9.17
2018-09-14T06:52:28.668Z,8.63
2018-09-14T06:54:59.643Z,9.50
2018-09-14T06:57:31.083Z,9.83
2018-09-14T07:00:01.993Z,8.90
2018-09-14T07:02:32.821Z,8.17
2018-09-14T07:05:06.581Z,7.23
2018-09-14T07:07:37.329Z,8.17
2018-09-14T07:10:08.125Z,6.60
2018-09-14T07:12:38.871Z,8.33
2018-09-14T07:15:09.713Z,7.97
2018-09-14T07:17:40.877Z,12.13
2018-09-14T07:20:11.911Z,13.53
2018-09-14T07:22:42.942Z,11.60
2018-09-14T07:25:14.683Z,10.10
2018-09-14T07:27:45.857Z,10.83
2018-09-14T07:30:17.106Z,11.07
2018-09-14T07:32:48.333Z,11.23
2018-09-14T07:35:19.326Z,12.53
2018-09-14T07:37:50.078Z,12.37
2018-09-14T07:40:20.965Z,12.50
2018-09-14T07:42:55.088Z,12.30
2018-09-14T07:45:25.957Z,12.90
2018-09-14T07:47:56.727Z,12.03
2018-09-14T07:50:27.629Z,11.87
2018-09-14T07:52:58.562Z,13.37
2018-09-14T07:55:29.372Z,11.93
2018-09-14T07:58:11.917Z,12.57
2018-09-14T08:00:42.986Z,11.87
2018-09-14T08:03:13.780Z,10.40
2018-09-14T08:05:44.842Z,9.60
2018-09-14T08:08:16.021Z,7.13
2018-09-14T08:10:47.312Z,7.20
2018-09-14T08:13:18.220Z,5.93
2018-09-14T08:15:49.380Z,5.43
2018-09-14T08:18:20.954Z,5.23
2018-09-14T08:20:51.969Z,5.63
2018-09-14T08:23:22.697Z,5.50
2018-09-14T08:25:54.629Z,5.40
2018-09-14T08:28:25.450Z,5.70
2018-09-14T08:30:56.517Z,5.93
2018-09-14T08:33:28.074Z,8.33
2018-09-14T08:35:59.457Z,7.03
2018-09-14T08:38:30.197Z,6.30
2018-09-14T08:41:01.010Z,5.00
2018-09-14T08:43:31.847Z,5.40
2018-09-14T08:46:02.854Z,5.87
2018-09-14T08:48:33.578Z,6.13
2018-09-14T08:51:05.350Z,5.60
2018-09-14T08:53:36.432Z,5.77
2018-09-14T08:56:07.413Z,6.03
2018-09-14T08:58:41.196Z,5.43
2018-09-14T09:01:13.007Z,5.33
2018-09-14T09:03:43.863Z,5.83
2018-09-14T09:06:15.007Z,5.50
2018-09-14T09:08:45.816Z,5.23
2018-09-14T09:11:17.454Z,5.13
2018-09-14T09:13:48.598Z,4.77
2018-09-14T09:16:19.374Z,4.90
2018-09-14T09:18:57.114Z,4.70
2018-09-14T09:21:28.231Z,4.40
2018-09-14T09:23:59.403Z,4.53
2018-09-14T09:26:30.490Z,4.50
2018-09-14T09:29:01.677Z,3.77
2018-09-14T09:31:32.457Z,3.60
2018-09-14T09:34:03.590Z,3.97
2018-09-14T09:36:34.457Z,4.87
2018-09-14T09:39:08.645Z,4.50
2018-09-14T09:41:39.925Z,4.10
2018-09-14T09:44:10.902Z,3.90
2018-09-14T09:46:41.696Z,3.90
2018-09-14T09:49:12.922Z,2.60
2018-09-14T09:51:45.351Z,3.10
2018-09-14T09:54:16.092Z,3.30
2018-09-14T09:56:47.367Z,3.30
2018-09-14T09:59:19.308Z,3.13
2018-09-14T10:01:55.259Z,2.93
2018-09-14T10:04:37.761Z,2.80
2018-09-14T10:07:08.593Z,2.93
2018-09-14T10:09:39.388Z,2.90
2018-09-14T10:12:10.193Z,2.57
2018-09-14T10:14:40.967Z,2.27
2018-09-14T10:17:11.768Z,2.47
2018-09-14T10:19:42.576Z,2.30
2018-09-14T10:22:13.461Z,2.20
2018-09-14T10:24:44.434Z,2.40
2018-09-14T10:27:15.226Z,2.33
2018-09-14T10:29:46.263Z,2.63
2018-09-14T10:32:17.093Z,3.03
2018-09-14T10:34:47.901Z,2.90
2018-09-14T10:37:21.264Z,2.90
2018-09-14T10:39:52.028Z,3.10
2018-09-14T10:42:23.630Z,2.73
2018-09-14T10:44:54.381Z,2.50
2018-09-14T10:47:25.260Z,2.83
2018-09-14T10:49:56.150Z,2.60
2018-09-14T10:52:27.431Z,2.60
2018-09-14T10:54:58.928Z,2.87
2018-09-14T10:57:29.741Z,2.90
2018-09-14T11:00:00.479Z,2.47
2018-09-14T11:02:31.296Z,2.80
2018-09-14T11:05:03.064Z,2.93
2018-09-14T11:07:33.912Z,2.60
2018-09-14T11:10:04.775Z,2.77
2018-09-14T11:12:35.746Z,2.47
2018-09-14T11:15:06.710Z,2.60
2018-09-14T11:17:38.221Z,2.80
2018-09-14T11:20:09.261Z,3.00
2018-09-14T11:22:40.075Z,2.77
2018-09-14T11:25:11.021Z,2.73
2018-09-14T11:27:41.905Z,2.53
2018-09-14T11:30:12.740Z,2.70
2018-09-14T11:32:43.826Z,2.50
2018-09-14T11:35:14.838Z,2.90
2018-09-14T11:37:46.081Z,2.73
2018-09-14T11:40:17.133Z,2.80
2018-09-14T11:42:47.930Z,2.57
2018-09-14T11:45:18.687Z,2.63
2018-09-14T11:47:49.680Z,2.80
2018-09-14T11:50:21.237Z,3.30
2018-09-14T11:52:52.725Z,3.40
2018-09-14T11:55:23.478Z,3.33
2018-09-14T11:57:54.537Z,2.87
2018-09-14T12:00:25.310Z,3.30
2018-09-14T12:02:56.122Z,2.90
2018-09-14T12:05:26.956Z,3.40
2018-09-14T12:07:57.802Z,3.60
2018-09-14T12:10:28.596Z,2.80
2018-09-14T12:13:00.490Z,3.47
2018-09-14T12:15:31.326Z,3.30
2018-09-14T12:18:02.088Z,3.20
2018-09-14T12:20:33.555Z,3.07
2018-09-14T12:23:04.467Z,3.17
2018-09-14T12:25:38.090Z,2.80
2018-09-14T12:28:09.854Z,3.53
2018-09-14T12:30:41.041Z,3.33
2018-09-14T12:33:11.885Z,3.57
2018-09-14T12:35:42.646Z,3.60
2018-09-14T12:38:14.117Z,3.10
2018-09-14T12:40:45.096Z,3.20
2018-09-14T12:43:15.896Z,3.10
2018-09-14T12:45:46.661Z,3.10
2018-09-14T12:48:17.470Z,3.73
2018-09-14T12:50:48.369Z,3.27
2018-09-14T12:53:19.284Z,3.67
2018-09-14T12:55:50.043Z,3.40
2018-09-14T12:58:20.829Z,4.90
2018-09-14T13:00:51.615Z,8.50
2018-09-14T13:03:22.696Z,6.03
2018-09-14T13:05:53.853Z,8.87
2018-09-14T13:08:24.716Z,5.93
2018-09-14T13:10:55.448Z,6.13
2018-09-14T13:13:26.889Z,8.33
2018-09-14T13:15:57.701Z,33.37
2018-09-14T13:18:28.522Z,20.53
2018-09-14T13:20:59.322Z,18.60
2018-09-14T13:23:30.275Z,16.67
2018-09-14T13:26:01.118Z,6.10
2018-09-14T13:28:31.935Z,3.27
2018-09-14T13:31:02.692Z,2.80
2018-09-14T13:33:34.022Z,3.13
2018-09-14T13:36:05.336Z,2.60
2018-09-14T13:38:36.377Z,3.20
2018-09-14T13:41:07.617Z,3.73
2018-09-14T13:43:38.422Z,2.80
2018-09-14T13:46:09.326Z,2.90
2018-09-14T13:48:40.317Z,2.73
2018-09-14T13:51:11.074Z,3.10
2018-09-14T13:53:41.990Z,2.40
2018-09-14T13:56:12.750Z,2.50
2018-09-14T13:58:43.581Z,2.80
2018-09-14T14:01:15.004Z,2.30
2018-09-14T14:03:46.652Z,2.67
2018-09-14T14:06:17.550Z,3.17
2018-09-14T14:08:48.926Z,2.70
2018-09-14T14:11:20.273Z,3.07
2018-09-14T14:13:51.352Z,2.50
2018-09-14T14:16:22.216Z,2.80
2018-09-14T14:18:53.413Z,2.73
2018-09-14T14:21:25.185Z,10.17
2018-09-14T14:23:56.580Z,10.87
2018-09-14T14:26:27.730Z,4.30
2018-09-14T14:29:02.460Z,3.40
2018-09-14T14:31:35.302Z,3.67
2018-09-14T14:34:11.089Z,3.57
2018-09-14T14:36:41.850Z,3.60
2018-09-14T14:39:12.659Z,2.87
2018-09-14T14:41:44.961Z,32.90
2018-09-14T14:44:16.717Z,41.40
2018-09-14T14:46:47.893Z,15.93
2018-09-14T14:49:18.824Z,7.87
2018-09-14T14:51:49.853Z,8.10
2018-09-14T14:54:25.693Z,3.50
2018-09-14T14:56:56.418Z,4.87
2018-09-14T14:59:27.227Z,6.17
2018-09-14T15:01:58.210Z,15.50
2018-09-14T15:04:29.271Z,16.93
2018-09-14T15:07:00.271Z,9.77
2018-09-14T15:09:31.139Z,9.97
2018-09-14T15:12:01.885Z,4.17
2018-09-14T15:14:33.266Z,4.13
2018-09-14T15:17:08.483Z,13.67
2018-09-14T15:19:45.149Z,8.20
2018-09-14T15:22:15.901Z,6.97
2018-09-14T15:24:46.955Z,4.87
2018-09-14T15:27:18.032Z,5.13
2018-09-14T15:29:48.797Z,5.50
2018-09-14T15:32:19.545Z,28.63
2018-09-14T15:34:50.338Z,36.40
2018-09-14T15:37:21.397Z,26.73
2018-09-14T15:39:52.236Z,36.10
2018-09-14T15:42:23.015Z,27.97
2018-09-14T15:44:53.853Z,39.80
2018-09-14T15:47:24.908Z,30.63
2018-09-14T15:49:55.765Z,34.73
2018-09-14T15:52:26.516Z,41.03
2018-09-14T15:54:57.373Z,29.03
2018-09-14T15:57:28.149Z,21.83
2018-09-14T15:59:58.968Z,12.80
2018-09-14T16:02:30.485Z,27.40
2018-09-14T16:05:01.316Z,24.77
2018-09-14T16:07:30.938Z,26.87
2018-09-14T16:10:01.346Z,12.13
2018-09-14T16:12:32.267Z,10.27
2018-09-14T16:15:03.355Z,13.60
2018-09-14T16:17:34.436Z,23.73
2018-09-14T16:20:05.532Z,37.50
2018-09-14T16:22:37.085Z,26.73
2018-09-14T16:25:08.279Z,15.43
2018-09-14T16:27:39.222Z,13.97
2018-09-14T16:30:10.369Z,8.57
2018-09-14T16:32:41.504Z,7.23
2018-09-14T16:35:12.288Z,10.47
2018-09-14T16:37:43.478Z,7.37
2018-09-14T16:40:14.910Z,12.30
2018-09-14T16:42:46.457Z,7.33
2018-09-14T16:45:17.236Z,6.67
2018-09-14T16:47:48.062Z,7.63
2018-09-14T16:50:18.845Z,8.27
2018-09-14T16:52:49.874Z,8.80
2018-09-14T16:55:21.619Z,8.00
2018-09-14T16:57:53.838Z,9.00
2018-09-14T17:00:24.620Z,10.87
2018-09-14T17:02:55.720Z,14.23
2018-09-14T17:05:26.507Z,14.93
2018-09-14T17:07:57.351Z,16.50
2018-09-14T17:10:28.153Z,16.70
2018-09-14T17:12:59.183Z,28.77
2018-09-14T17:15:30.477Z,15.00
2018-09-14T17:18:01.397Z,14.97
2018-09-14T17:20:32.821Z,16.23
2018-09-14T17:23:03.659Z,13.13
2018-09-14T17:25:34.445Z,13.97
2018-09-14T17:28:05.250Z,15.20
2018-09-14T17:30:36.041Z,21.53
2018-09-14T17:33:07.068Z,13.50
2018-09-14T17:35:38.546Z,11.40
2018-09-14T17:38:09.715Z,10.73
2018-09-14T17:40:40.667Z,48.10
2018-09-14T17:43:11.508Z,13.43
2018-09-14T17:45:42.979Z,19.67
2018-09-14T17:48:13.827Z,8.60
2018-09-14T17:50:44.617Z,8.77
2018-09-14T17:53:16.322Z,9.93
2018-09-14T17:55:47.086Z,10.87
2018-09-14T17:58:18.924Z,11.43
2018-09-14T18:00:49.780Z,12.57
2018-09-14T18:03:20.972Z,13.57
2018-09-14T18:05:51.894Z,15.10
2018-09-14T18:08:22.721Z,18.87
2018-09-14T18:10:53.652Z,15.40
2018-09-14T18:13:24.678Z,14.30
2018-09-14T18:15:56.581Z,13.07
2018-09-14T18:18:28.035Z,11.73
2018-09-14T18:20:58.870Z,11.33
2018-09-14T18:23:30.327Z,11.83
2018-09-14T18:26:01.269Z,8.27
2018-09-14T18:28:32.080Z,8.30
2018-09-14T18:31:02.843Z,7.83
2018-09-14T18:33:33.651Z,7.43
2018-09-14T18:36:05.442Z,7.43
2018-09-14T18:38:36.449Z,6.70
2018-09-14T18:41:07.238Z,10.00
2018-09-14T18:43:38.068Z,91.13
2018-09-14T18:46:09.547Z,78.17
2018-09-14T18:48:41.037Z,54.30
2018-09-14T18:51:11.811Z,37.63
2018-09-14T18:53:43.346Z,22.60
2018-09-14T18:56:14.138Z,15.93
2018-09-14T18:58:45.649Z,10.97
2018-09-14T19:01:16.425Z,10.60
2018-09-14T19:03:47.764Z,12.70
2018-09-14T19:06:18.506Z,13.10
2018-09-14T19:08:49.318Z,16.60
2018-09-14T19:11:21.470Z,10.30
2018-09-14T19:13:53.565Z,12.30
2018-09-14T19:16:25.341Z,17.37
2018-09-14T19:18:56.170Z,22.33
2018-09-14T19:21:26.941Z,39.97
2018-09-14T19:23:57.776Z,37.13
2018-09-14T19:26:28.542Z,32.47
2018-09-14T19:28:59.449Z,37.23
2018-09-14T19:31:30.297Z,36.10
2018-09-14T19:34:02.452Z,33.13
2018-09-14T19:36:34.806Z,29.00
2018-09-14T19:39:09.117Z,25.60
2018-09-14T19:41:39.919Z,22.43
2018-09-14T19:44:10.793Z,19.00
2018-09-14T19:46:42.171Z,19.33
2018-09-14T19:49:13.036Z,16.00
2018-09-14T19:51:43.793Z,15.47
2018-09-14T19:54:16.668Z,10.70
2018-09-14T19:56:47.451Z,9.80
2018-09-14T19:59:35.098Z,13.30
2018-09-14T20:02:11.597Z,14.10
2018-09-14T20:04:47.491Z,12.20
2018-09-14T20:07:35.787Z,9.47
2018-09-14T20:10:11.578Z,8.00
2018-09-14T20:12:47.268Z,8.20
2018-09-14T20:15:22.946Z,10.37
2018-09-14T20:18:00.836Z,15.23
2018-09-14T20:20:37.001Z,23.70
2018-09-14T20:23:12.889Z,18.83
2018-09-14T20:25:49.187Z,32.23
2018-09-14T20:28:25.817Z,8.73
2018-09-14T20:31:06.831Z,9.37
2018-09-14T20:33:42.549Z,7.70
2018-09-14T20:36:18.235Z,7.60
2018-09-14T20:38:54.034Z,7.30
2018-09-14T20:41:29.951Z,7.27
2018-09-14T20:44:05.688Z,8.27
2018-09-14T20:46:44.760Z,13.53
2018-09-14T20:49:24.205Z,10.57
2018-09-14T20:52:01.068Z,8.43
2018-09-14T20:54:37.162Z,9.33
2018-09-14T20:57:13.335Z,9.47
2018-09-14T20:59:49.920Z,11.93
2018-09-14T21:02:26.929Z,13.17
2018-09-14T21:05:02.706Z,9.93
2018-09-14T21:07:38.470Z,8.87
2018-09-14T21:10:14.225Z,8.67
2018-09-14T21:12:51.316Z,8.67
2018-09-14T21:15:27.026Z,14.73
2018-09-14T21:18:05.305Z,9.77
2018-09-14T21:20:41.131Z,9.90
2018-09-14T21:23:17.031Z,9.57
2018-09-14T21:25:53.334Z,8.93
2018-09-14T21:28:29.910Z,10.23
2018-09-14T21:31:05.719Z,9.13
2018-09-14T21:33:41.623Z,8.63
2018-09-14T21:36:17.336Z,10.20
2018-09-14T21:38:53.290Z,10.63
2018-09-14T21:41:29.021Z,11.80
2018-09-14T21:44:04.988Z,11.37
2018-09-14T21:46:40.832Z,10.63
2018-09-14T21:49:17.104Z,10.97
2018-09-14T21:51:53.472Z,9.33
2018-09-14T21:54:29.388Z,9.03
2018-09-14T21:57:05.482Z,10.53
2018-09-14T21:59:41.674Z,10.53
2018-09-14T22:02:17.562Z,8.83
2018-09-14T22:04:53.450Z,8.77
2018-09-14T22:07:29.614Z,10.40
2018-09-14T22:10:05.569Z,12.43
2018-09-14T22:12:41.299Z,13.03
2018-09-14T22:15:17.203Z,16.67
2018-09-14T22:17:52.967Z,18.93
2018-09-14T22:20:28.892Z,19.23
2018-09-14T22:23:05.894Z,15.70
2018-09-14T22:25:41.707Z,12.43
2018-09-14T22:28:21.262Z,11.87
2018-09-14T22:31:00.779Z,9.43
2018-09-14T22:33:36.459Z,8.93
2018-09-14T22:36:12.480Z,8.93
2018-09-14T22:38:48.802Z,8.63
2018-09-14T22:41:24.583Z,8.30
2018-09-14T22:44:00.512Z,8.20
2018-09-14T22:46:37.018Z,8.50
2018-09-14T22:49:13.439Z,9.53
2018-09-14T22:53:13.141Z,10.83
2018-09-14T22:55:49.092Z,9.03
2018-09-14T22:58:24.964Z,9.30
2018-09-14T23:01:05.983Z,10.60
2018-09-14T23:03:41.826Z,8.20
2018-09-14T23:06:17.654Z,8.20
2018-09-14T23:08:53.594Z,8.70
2018-09-14T23:11:29.693Z,7.70
2018-09-14T23:14:05.678Z,8.77
2018-09-14T23:16:41.749Z,8.00
2018-09-14T23:19:19.991Z,8.70
2018-09-14T23:21:55.916Z,8.77
2018-09-14T23:24:33.838Z,10.33
2018-09-14T23:27:10.249Z,8.70
2018-09-14T23:29:46.173Z,8.23
2018-09-14T23:32:22.959Z,8.40
2018-09-14T23:35:04.819Z,10.23
2018-09-14T23:37:40.770Z,8.33
2018-09-14T23:40:17.297Z,9.13
2018-09-14T23:42:54.202Z,9.23
2018-09-14T23:45:30.393Z,8.43
2018-09-14T23:48:06.071Z,8.57
2018-09-14T23:50:41.739Z,8.30
2018-09-14T23:53:18.017Z,8.60
2018-09-14T23:55:54.259Z,8.20
2018-09-14T23:58:30.561Z,8.70
